createdAt,value
2023-03-04T00:02:20.420Z,24.35
2023-03-04T00:04:50.974Z,19.05
2023-03-04T00:07:25.751Z,25.75
2023-03-04T00:09:57.534Z,23.58
2023-03-04T00:12:27.600Z,20.02
2023-03-04T00:14:57.547Z,23.73
2023-03-04T00:20:17.863Z,24.65
2023-03-04T00:22:50.177Z,28.05
2023-03-04T00:25:37.964Z,27.00
2023-03-04T00:28:18.246Z,25.63
2023-03-04T00:30:48.640Z,24.52
2023-03-04T00:33:25.798Z,25.70
2023-03-04T00:35:56.216Z,27.85
2023-03-04T00:38:33.486Z,23.75
2023-03-04T00:41:10.279Z,28.25
2023-03-04T00:43:38.326Z,25.25
2023-03-04T00:46:08.258Z,25.85
2023-03-04T00:48:38.760Z,24.08
2023-03-04T00:51:07.132Z,26.77
2023-03-04T00:53:35.222Z,24.92
2023-03-04T00:56:04.902Z,26.83
2023-03-04T00:58:33.009Z,27.05
2023-03-04T01:01:01.063Z,24.98
2023-03-04T01:03:31.379Z,26.50
2023-03-04T01:06:00.779Z,24.98
2023-03-04T01:08:28.787Z,28.10
2023-03-04T01:10:56.750Z,27.40
2023-03-04T01:13:26.126Z,27.02
2023-03-04T01:15:54.150Z,26.30
2023-03-04T01:18:22.199Z,23.65
2023-03-04T01:20:50.872Z,26.77
2023-03-04T01:23:28.121Z,26.98
2023-03-04T01:26:03.653Z,28.10
2023-03-04T01:28:36.677Z,27.27
2023-03-04T01:31:09.914Z,25.48
2023-03-04T01:33:41.120Z,25.20
2023-03-04T01:36:12.237Z,27.23
2023-03-04T01:38:40.824Z,29.30
2023-03-04T01:41:12.995Z,29.02
2023-03-04T01:43:45.207Z,26.40
2023-03-04T01:46:28.333Z,28.85
2023-03-04T01:49:02.833Z,25.27
2023-03-04T01:51:31.699Z,28.00
2023-03-04T01:54:00.284Z,25.05
2023-03-04T01:56:36.445Z,27.13
2023-03-04T01:59:20.610Z,24.75
2023-03-04T02:01:50.875Z,26.60
2023-03-04T02:04:21.515Z,25.05
2023-03-04T02:06:51.115Z,25.35
2023-03-04T02:09:20.043Z,28.23
2023-03-04T02:11:49.241Z,27.80
2023-03-04T02:14:22.233Z,26.45
2023-03-04T02:16:58.464Z,26.88
2023-03-04T02:19:41.269Z,25.67
2023-03-04T02:22:09.352Z,26.92
2023-03-04T02:24:43.240Z,26.40
2023-03-04T02:27:15.503Z,26.05
2023-03-04T02:29:43.576Z,25.05
2023-03-04T02:32:14.103Z,27.67
2023-03-04T02:34:48.062Z,27.27
2023-03-04T02:37:18.957Z,26.73
2023-03-04T02:39:50.182Z,27.98
2023-03-04T02:42:22.395Z,26.27
2023-03-04T02:44:50.609Z,27.27
2023-03-04T02:47:19.768Z,28.35
2023-03-04T02:49:48.293Z,27.08
2023-03-04T02:52:20.435Z,27.85
2023-03-04T02:54:48.475Z,28.45
2023-03-04T02:57:19.608Z,26.20
2023-03-04T02:59:47.569Z,26.42
2023-03-04T03:02:15.585Z,28.92
2023-03-04T03:04:43.860Z,25.50
2023-03-04T03:07:27.974Z,26.10
2023-03-04T03:09:58.587Z,27.08
2023-03-04T03:12:31.654Z,27.77
2023-03-04T03:15:03.234Z,25.45
2023-03-04T03:17:46.191Z,28.20
2023-03-04T03:20:21.267Z,27.15
2023-03-04T03:22:51.771Z,27.40
2023-03-04T03:25:34.496Z,25.05
2023-03-04T03:28:04.608Z,24.23
2023-03-04T03:30:33.689Z,26.60
2023-03-04T03:33:04.019Z,24.10
2023-03-04T03:35:35.063Z,27.58
2023-03-04T03:38:03.031Z,26.42
2023-03-04T03:40:32.279Z,24.60
2023-03-04T03:43:00.229Z,25.80
2023-03-04T03:45:29.710Z,23.73
2023-03-04T03:47:57.648Z,24.52
2023-03-04T03:50:28.032Z,27.58
2023-03-04T03:52:58.198Z,26.27
2023-03-04T03:55:26.275Z,25.95
2023-03-04T03:57:54.272Z,28.25
2023-03-04T04:00:22.740Z,25.98
2023-03-04T04:02:52.713Z,27.73
2023-03-04T04:05:21.119Z,23.70
2023-03-04T04:07:53.698Z,26.30
2023-03-04T04:10:22.491Z,31.38
2023-03-04T04:12:50.741Z,23.65
2023-03-04T04:15:19.978Z,26.77
2023-03-04T04:17:48.015Z,27.02
2023-03-04T04:20:18.008Z,24.65
2023-03-04T04:22:45.977Z,26.42
2023-03-04T04:25:13.962Z,24.65
2023-03-04T04:27:44.819Z,25.65
2023-03-04T04:30:13.829Z,25.60
2023-03-04T04:32:42.122Z,26.65
2023-03-04T04:35:10.627Z,25.98
2023-03-04T04:37:40.052Z,26.10
2023-03-04T04:40:09.166Z,25.98
2023-03-04T04:42:37.281Z,24.45
2023-03-04T04:45:06.008Z,28.05
2023-03-04T04:47:33.906Z,26.10
2023-03-04T04:50:02.230Z,27.08
2023-03-04T04:52:33.761Z,26.17
2023-03-04T04:55:03.846Z,24.63
2023-03-04T04:57:35.265Z,27.83
2023-03-04T05:00:10.459Z,17.13
2023-03-04T05:02:39.898Z,24.65
2023-03-04T05:05:09.465Z,25.83
2023-03-04T05:07:40.441Z,26.73
2023-03-04T05:10:13.189Z,25.83
2023-03-04T05:12:42.257Z,27.40
2023-03-04T05:15:13.798Z,26.33
2023-03-04T05:17:43.809Z,26.17
2023-03-04T05:20:15.054Z,27.50
2023-03-04T05:22:46.673Z,26.83
2023-03-04T05:25:19.941Z,25.10
2023-03-04T05:27:48.524Z,25.45
2023-03-04T05:30:20.218Z,26.77
2023-03-04T05:32:53.260Z,25.52
2023-03-04T05:35:28.973Z,25.00
2023-03-04T05:37:58.748Z,27.33
2023-03-04T05:40:30.569Z,25.13
2023-03-04T05:42:59.131Z,25.55
2023-03-04T05:45:28.521Z,24.65
2023-03-04T05:47:59.887Z,23.88
2023-03-04T05:50:33.368Z,27.05
2023-03-04T05:53:05.098Z,25.65
2023-03-04T05:55:37.066Z,17.75
2023-03-04T05:58:05.688Z,27.33
2023-03-04T06:00:34.053Z,24.08
2023-03-04T06:03:07.286Z,24.13
2023-03-04T06:05:41.572Z,22.08
2023-03-04T06:08:10.221Z,24.63
2023-03-04T06:10:40.092Z,25.23
2023-03-04T06:13:13.416Z,26.55
2023-03-04T06:15:47.829Z,24.05
2023-03-04T06:18:16.294Z,25.75
2023-03-04T06:20:47.641Z,25.50
2023-03-04T06:23:22.514Z,24.45
2023-03-04T06:25:55.462Z,25.20
2023-03-04T06:28:24.732Z,24.33
2023-03-04T06:30:53.466Z,23.38
2023-03-04T06:33:28.752Z,23.52
2023-03-04T06:36:08.234Z,24.00
2023-03-04T06:38:42.561Z,24.23
2023-03-04T06:41:23.748Z,23.17
2023-03-04T06:43:58.892Z,22.70
2023-03-04T06:46:30.671Z,23.58
2023-03-04T06:49:06.358Z,23.55
2023-03-04T06:51:36.742Z,23.25
2023-03-04T06:54:14.949Z,24.48
2023-03-04T06:56:51.830Z,23.02
2023-03-04T06:59:28.164Z,24.80
2023-03-04T07:02:06.595Z,22.65
2023-03-04T07:04:37.597Z,24.08
2023-03-04T07:07:12.068Z,24.52
2023-03-04T07:09:40.345Z,22.65
2023-03-04T07:12:10.188Z,24.17
2023-03-04T07:14:42.339Z,23.42
2023-03-04T07:17:10.628Z,24.48
2023-03-04T07:19:42.755Z,25.17
2023-03-04T07:22:12.360Z,24.90
2023-03-04T07:24:40.688Z,27.67
2023-03-04T07:27:10.398Z,25.38
2023-03-04T07:29:38.445Z,27.13
2023-03-04T07:32:09.450Z,25.90
2023-03-04T07:34:37.730Z,25.30
2023-03-04T07:37:07.644Z,28.08
2023-03-04T07:39:37.483Z,24.92
2023-03-04T07:42:05.815Z,24.52
2023-03-04T07:44:35.237Z,23.98
2023-03-04T07:47:05.221Z,25.02
2023-03-04T07:49:33.519Z,24.08
2023-03-04T07:52:06.500Z,25.85
2023-03-04T07:54:34.863Z,24.33
2023-03-04T07:57:03.242Z,25.85
2023-03-04T07:59:34.327Z,25.45
2023-03-04T08:02:07.184Z,24.92
2023-03-04T08:04:35.599Z,23.65
2023-03-04T08:07:04.064Z,23.48
2023-03-04T08:09:40.144Z,22.90
2023-03-04T08:12:11.389Z,24.48
2023-03-04T08:14:40.738Z,25.35
2023-03-04T08:17:10.630Z,24.33
2023-03-04T08:19:39.832Z,24.60
2023-03-04T08:22:20.510Z,26.02
2023-03-04T08:25:04.089Z,26.95
2023-03-04T08:27:37.718Z,25.60
2023-03-04T08:30:10.504Z,24.88
2023-03-04T08:32:53.283Z,25.70
2023-03-04T08:36:00.329Z,25.15
2023-03-04T08:38:43.731Z,25.08
2023-03-04T08:41:47.148Z,26.33
2023-03-04T08:44:45.612Z,26.05
2023-03-04T08:50:32.832Z,26.88
2023-03-04T08:53:17.060Z,23.17
2023-03-04T08:55:56.223Z,25.25
2023-03-04T08:59:08.080Z,17.38
2023-03-04T09:01:59.085Z,24.23
2023-03-04T09:04:44.837Z,22.70
2023-03-04T09:07:59.969Z,22.52
2023-03-04T09:10:42.339Z,23.42
2023-03-04T09:13:31.906Z,23.10
2023-03-04T09:16:26.363Z,24.35
2023-03-04T09:19:02.497Z,16.92
2023-03-04T09:21:36.890Z,23.30
2023-03-04T09:24:20.362Z,23.00
2023-03-04T09:27:11.329Z,22.55
2023-03-04T09:29:54.258Z,22.27
2023-03-04T09:32:44.500Z,20.30
2023-03-04T09:35:56.578Z,21.70
2023-03-04T09:38:31.433Z,19.20
2023-03-04T09:41:22.243Z,18.75
2023-03-04T09:44:12.325Z,20.02
2023-03-04T09:46:49.309Z,18.63
2023-03-04T09:49:34.112Z,17.67
2023-03-04T09:52:19.230Z,20.25
2023-03-04T09:55:19.135Z,19.58
2023-03-04T09:58:05.162Z,20.45
2023-03-04T10:00:40.309Z,18.00
2023-03-04T10:03:16.529Z,17.33
2023-03-04T10:05:55.736Z,17.45
2023-03-04T10:08:42.590Z,18.50
2023-03-04T10:11:15.924Z,19.70
2023-03-04T10:13:53.010Z,19.02
2023-03-04T10:16:26.397Z,18.60
2023-03-04T10:18:59.629Z,17.50
2023-03-04T10:21:35.041Z,18.48
2023-03-04T10:24:06.676Z,15.55
2023-03-04T10:26:37.527Z,16.23
2023-03-04T10:29:09.310Z,16.02
2023-03-04T10:31:38.550Z,15.93
2023-03-04T10:34:07.344Z,15.88
2023-03-04T10:36:51.025Z,15.52
2023-03-04T10:39:32.379Z,15.98
2023-03-04T10:42:02.831Z,14.90
2023-03-04T10:44:34.596Z,16.23
2023-03-04T10:47:02.783Z,15.30
2023-03-04T10:49:33.034Z,15.90
2023-03-04T10:52:20.969Z,15.18
2023-03-04T10:54:51.936Z,15.32
2023-03-04T10:57:22.308Z,15.65
2023-03-04T10:59:58.102Z,16.40
2023-03-04T11:02:29.364Z,15.65
2023-03-04T11:05:17.985Z,16.45
2023-03-04T11:07:56.975Z,15.55
2023-03-04T11:10:27.551Z,17.20
2023-03-04T11:13:01.368Z,15.85
2023-03-04T11:15:49.341Z,16.10
2023-03-04T11:18:23.433Z,15.82
2023-03-04T11:20:55.100Z,15.25
2023-03-04T11:23:37.335Z,14.87
2023-03-04T11:26:10.332Z,15.25
2023-03-04T11:28:48.679Z,15.30
2023-03-04T11:31:22.990Z,15.63
2023-03-04T11:33:56.325Z,14.93
2023-03-04T11:36:34.302Z,14.13
2023-03-04T11:39:09.663Z,13.07
2023-03-04T11:41:40.121Z,13.55
2023-03-04T11:44:09.906Z,13.82
2023-03-04T11:47:04.533Z,16.35
2023-03-04T11:50:04.722Z,12.52
2023-03-04T11:53:00.454Z,12.65
2023-03-04T11:55:39.972Z,12.57
2023-03-04T11:58:24.144Z,14.23
2023-03-04T12:00:59.216Z,12.10
2023-03-04T12:04:05.366Z,12.77
2023-03-04T12:06:57.046Z,12.43
2023-03-04T12:09:47.058Z,11.82
2023-03-04T12:12:36.005Z,11.30
2023-03-04T12:15:16.703Z,12.93
2023-03-04T12:18:25.028Z,11.52
2023-03-04T12:21:32.177Z,10.77
2023-03-04T12:24:33.260Z,13.45
2023-03-04T12:27:11.100Z,11.75
2023-03-04T12:29:47.016Z,13.27
2023-03-04T12:32:23.701Z,12.30
2023-03-04T12:35:12.158Z,12.30
2023-03-04T12:38:09.278Z,12.27
2023-03-04T12:40:49.283Z,10.73
2023-03-04T12:43:42.198Z,10.90
2023-03-04T12:49:02.037Z,10.32
2023-03-04T12:51:37.087Z,10.98
2023-03-04T12:54:18.116Z,11.15
2023-03-04T12:56:50.974Z,11.57
2023-03-04T12:59:21.053Z,10.48
2023-03-04T13:01:59.450Z,11.23
2023-03-04T13:04:41.601Z,11.02
2023-03-04T13:07:30.269Z,11.90
2023-03-04T13:10:06.261Z,11.20
2023-03-04T13:12:49.592Z,10.05
2023-03-04T13:15:36.892Z,11.45
2023-03-04T13:18:21.097Z,10.57
2023-03-04T13:21:07.803Z,10.82
2023-03-04T13:23:36.241Z,12.10
2023-03-04T13:26:21.425Z,10.40
2023-03-04T13:29:12.039Z,9.70
2023-03-04T13:32:11.182Z,9.75
2023-03-04T13:34:54.189Z,9.75
2023-03-04T13:37:33.433Z,9.13
2023-03-04T13:40:36.972Z,9.93
2023-03-04T13:43:28.528Z,8.82
2023-03-04T13:45:59.286Z,9.18
2023-03-04T13:48:46.485Z,9.75
2023-03-04T13:51:31.858Z,7.75
2023-03-04T13:54:19.110Z,8.07
2023-03-04T13:56:50.084Z,7.63
2023-03-04T13:59:29.735Z,6.82
2023-03-04T14:02:01.420Z,6.97
2023-03-04T14:04:37.417Z,8.00
2023-03-04T14:07:19.020Z,7.03
2023-03-04T14:09:59.846Z,7.05
2023-03-04T14:12:32.977Z,7.57
2023-03-04T14:15:05.335Z,7.47
2023-03-04T14:17:36.910Z,6.82
2023-03-04T14:20:06.149Z,6.60
2023-03-04T14:22:41.103Z,6.10
2023-03-04T14:25:23.056Z,6.80
2023-03-04T14:27:54.191Z,7.32
2023-03-04T14:30:40.735Z,7.20
2023-03-04T14:33:15.702Z,6.43
2023-03-04T14:35:48.948Z,7.38
2023-03-04T14:38:20.835Z,6.72
2023-03-04T14:40:52.727Z,4.70
2023-03-04T14:43:22.714Z,7.18
2023-03-04T14:45:55.787Z,7.63
2023-03-04T14:48:28.957Z,7.07
2023-03-04T14:50:58.406Z,6.95
2023-03-04T14:53:27.583Z,7.53
2023-03-04T14:56:05.077Z,6.45
2023-03-04T14:58:34.405Z,6.85
2023-03-04T15:01:16.580Z,6.07
2023-03-04T15:03:47.797Z,6.35
2023-03-04T15:06:20.785Z,6.00
2023-03-04T15:08:56.714Z,6.03
2023-03-04T15:11:29.164Z,5.72
2023-03-04T15:14:03.602Z,7.03
2023-03-04T15:17:03.200Z,6.35
2023-03-04T15:19:37.579Z,6.40
2023-03-04T15:22:07.983Z,5.80
2023-03-04T15:24:40.471Z,6.10
2023-03-04T15:27:21.806Z,5.45
2023-03-04T15:30:10.270Z,6.30
2023-03-04T15:32:56.218Z,5.50
2023-03-04T15:35:40.649Z,5.68
2023-03-04T15:38:14.226Z,5.68
2023-03-04T15:40:44.039Z,7.45
2023-03-04T15:43:17.664Z,5.72
2023-03-04T15:45:46.043Z,6.88
2023-03-04T15:48:19.751Z,5.93
2023-03-04T15:50:50.738Z,6.18
2023-03-04T15:53:24.650Z,6.85
2023-03-04T15:55:52.887Z,8.07
2023-03-04T15:58:21.480Z,7.28
2023-03-04T16:00:55.472Z,7.93
2023-03-04T16:03:29.799Z,8.40
2023-03-04T16:06:00.744Z,9.13
2023-03-04T16:08:34.440Z,8.57
2023-03-04T16:11:02.515Z,7.75
2023-03-04T16:13:30.548Z,7.78
2023-03-04T16:16:02.073Z,8.13
2023-03-04T16:18:31.544Z,5.88
2023-03-04T16:21:05.406Z,7.78
2023-03-04T16:23:40.941Z,7.68
2023-03-04T16:26:13.709Z,9.45
2023-03-04T16:28:43.656Z,11.00
2023-03-04T16:31:13.624Z,8.43
2023-03-04T16:33:43.457Z,9.30
2023-03-04T16:36:16.153Z,8.07
2023-03-04T16:38:44.527Z,11.30
2023-03-04T16:41:14.270Z,8.88
2023-03-04T16:43:45.609Z,9.25
2023-03-04T16:46:18.359Z,8.18
2023-03-04T16:48:48.634Z,8.18
2023-03-04T16:51:20.022Z,10.05
2023-03-04T16:53:55.045Z,7.85
2023-03-04T16:56:26.014Z,10.02
2023-03-04T16:58:56.188Z,14.65
2023-03-04T17:01:26.841Z,10.15
2023-03-04T17:03:57.279Z,9.00
2023-03-04T17:06:27.892Z,9.30
2023-03-04T17:08:57.509Z,9.25
2023-03-04T17:11:26.032Z,9.15
2023-03-04T17:13:58.000Z,8.75
2023-03-04T17:16:26.684Z,8.10
2023-03-04T17:18:55.093Z,8.73
2023-03-04T17:21:25.730Z,8.13
2023-03-04T17:24:11.590Z,9.05
2023-03-04T17:27:00.820Z,8.05
2023-03-04T17:29:38.974Z,8.88
2023-03-04T17:32:17.249Z,7.88
2023-03-04T17:35:18.599Z,8.75
2023-03-04T17:38:14.282Z,8.85
2023-03-04T17:41:01.655Z,10.77
2023-03-04T17:43:37.087Z,9.70
2023-03-04T17:46:35.521Z,9.18
2023-03-04T17:49:21.961Z,8.68
2023-03-04T17:59:47.513Z,7.80
2023-03-04T18:03:29.994Z,8.63
2023-03-04T18:09:36.959Z,9.20
2023-03-04T18:12:50.094Z,9.45
2023-03-04T18:18:45.775Z,9.90
2023-03-04T18:21:51.675Z,12.15
2023-03-04T18:25:25.007Z,12.02
2023-03-04T18:31:57.101Z,11.80
2023-03-04T18:34:48.892Z,11.70
2023-03-04T18:37:34.293Z,11.52
2023-03-04T18:40:52.502Z,13.18
2023-03-04T18:43:45.443Z,12.70
2023-03-04T18:47:08.020Z,12.63
2023-03-04T18:52:36.733Z,11.85
2023-03-04T18:55:34.077Z,11.43
2023-03-04T18:59:09.379Z,12.05
2023-03-04T19:01:32.279Z,11.27
2023-03-04T19:04:28.362Z,11.77
2023-03-04T19:07:30.288Z,12.07
2023-03-04T19:10:17.037Z,12.15
2023-03-04T19:15:54.798Z,13.30
2023-03-04T19:22:15.860Z,12.90
2023-03-04T19:25:45.263Z,12.90
2023-03-04T19:31:56.309Z,12.68
2023-03-04T19:41:07.938Z,12.25
2023-03-04T19:44:10.591Z,12.73
2023-03-04T19:46:57.068Z,12.48
2023-03-04T19:49:50.718Z,12.38
2023-03-04T19:52:56.264Z,14.07
2023-03-04T19:56:12.470Z,13.35
2023-03-04T19:58:58.544Z,11.80
2023-03-04T20:01:56.853Z,13.77
2023-03-04T20:04:37.313Z,13.40
2023-03-04T20:07:22.441Z,12.75
2023-03-04T20:13:22.301Z,12.43
2023-03-04T20:15:54.310Z,12.15
2023-03-04T20:18:54.816Z,12.55
2023-03-04T20:21:56.554Z,12.95
2023-03-04T20:24:35.763Z,12.63
2023-03-04T20:27:15.757Z,11.50
2023-03-04T20:29:58.240Z,12.27
2023-03-04T20:32:48.752Z,12.65
2023-03-04T20:35:43.397Z,12.38
2023-03-04T20:41:52.969Z,12.85
2023-03-04T20:44:36.311Z,12.80
2023-03-04T20:47:25.009Z,12.07
2023-03-04T20:50:06.446Z,11.90
2023-03-04T20:52:44.557Z,11.65
2023-03-04T20:55:31.314Z,11.85
2023-03-04T20:58:34.273Z,12.27
2023-03-04T21:01:19.261Z,12.07
2023-03-04T21:04:09.429Z,14.02
2023-03-04T21:07:06.513Z,12.45
2023-03-04T21:12:56.938Z,13.23
2023-03-04T21:15:24.976Z,10.10
2023-03-04T21:17:52.987Z,12.15
2023-03-04T21:20:21.064Z,11.23
2023-03-04T21:22:52.088Z,11.63
2023-03-04T21:25:23.087Z,13.05
2023-03-04T21:27:51.104Z,12.23
2023-03-04T21:30:19.335Z,10.82
2023-03-04T21:32:47.448Z,12.40
2023-03-04T21:35:16.181Z,12.02
2023-03-04T21:37:44.117Z,12.20
2023-03-04T21:40:13.563Z,12.95
2023-03-04T21:42:42.965Z,11.73
2023-03-04T21:45:13.320Z,10.88
2023-03-04T21:47:41.602Z,11.93
2023-03-04T21:50:10.676Z,12.10
2023-03-04T21:52:38.821Z,10.75
2023-03-04T21:55:07.139Z,11.90
2023-03-04T21:57:35.215Z,12.25
2023-03-04T22:00:06.556Z,11.20
2023-03-04T22:02:34.840Z,12.60
2023-03-04T22:05:02.856Z,10.07
2023-03-04T22:07:31.011Z,11.75
2023-03-04T22:09:59.562Z,10.77
2023-03-04T22:12:28.127Z,10.27
2023-03-04T22:14:56.078Z,12.18
2023-03-04T22:17:25.653Z,11.55
2023-03-04T22:19:53.756Z,10.07
2023-03-04T22:22:21.838Z,11.70
2023-03-04T22:24:53.239Z,10.82
2023-03-04T22:27:21.640Z,11.55
2023-03-04T22:29:51.806Z,10.73
2023-03-04T22:32:24.160Z,11.30
2023-03-04T22:34:54.224Z,12.77
2023-03-04T22:37:28.228Z,10.55
2023-03-04T22:39:58.631Z,9.60
2023-03-04T22:42:30.193Z,12.18
2023-03-04T22:44:58.984Z,11.67
2023-03-04T22:47:31.156Z,10.43
2023-03-04T22:50:04.417Z,10.20
2023-03-04T22:52:33.295Z,10.57
2023-03-04T22:55:09.029Z,9.63
2023-03-04T22:57:40.070Z,10.55
2023-03-04T23:00:19.190Z,11.18
2023-03-04T23:02:48.111Z,11.23
2023-03-04T23:05:22.841Z,10.05
2023-03-04T23:07:54.627Z,11.65
2023-03-04T23:10:25.417Z,12.32
2023-03-04T23:12:56.269Z,10.38
2023-03-04T23:15:31.667Z,10.77
2023-03-04T23:18:05.699Z,10.88
2023-03-04T23:20:35.840Z,10.40
2023-03-04T23:23:03.972Z,11.07
2023-03-04T23:25:35.726Z,10.45
2023-03-04T23:28:04.277Z,10.80
2023-03-04T23:30:34.769Z,10.80
2023-03-04T23:33:03.570Z,11.05
2023-03-04T23:35:40.463Z,11.60
2023-03-04T23:38:11.569Z,10.20
2023-03-04T23:40:43.905Z,9.25
2023-03-04T23:43:12.445Z,10.13
2023-03-04T23:45:40.569Z,9.95
2023-03-04T23:48:09.177Z,10.95
2023-03-04T23:50:39.416Z,9.40
2023-03-04T23:53:14.247Z,9.85
2023-03-04T23:55:45.928Z,8.98
2023-03-04T23:58:17.175Z,10.40
